sensor_id;sensor_type;location;lat;lon;timestamp;P1;durP1;ratioP1;P2;durP2;ratioP2
7783;SDS011;19359;51.402;6.778;2023-04-24T00:00:53;718.08;;;198.48;;
7783;SDS011;19359;51.402;6.778;2023-04-24T00:03:21;718.97;;;203.00;;
7783;SDS011;19359;51.402;6.778;2023-04-24T00:05:48;712.30;;;203.07;;
7783;SDS011;19359;51.402;6.778;2023-04-24T00:08:16;707.53;;;206.15;;
7783;SDS011;19359;51.402;6.778;2023-04-24T00:10:43;702.85;;;213.57;;
7783;SDS011;19359;51.402;6.778;2023-04-24T00:13:11;698.42;;;206.60;;
7783;SDS011;19359;51.402;6.778;2023-04-24T00:15:39;712.30;;;203.50;;
7783;SDS011;19359;51.402;6.778;2023-04-24T00:18:07;713.92;;;194.60;;
7783;SDS011;19359;51.402;6.778;2023-04-24T00:20:34;712.13;;;195.63;;
7783;SDS011;19359;51.402;6.778;2023-04-24T00:23:01;715.45;;;199.82;;
7783;SDS011;19359;51.402;6.778;2023-04-24T00:25:28;712.80;;;199.95;;
7783;SDS011;19359;51.402;6.778;2023-04-24T00:27:56;714.92;;;195.88;;
7783;SDS011;19359;51.402;6.778;2023-04-24T00:30:24;714.95;;;196.35;;
7783;SDS011;19359;51.402;6.778;2023-04-24T00:32:51;711.80;;;192.57;;
7783;SDS011;19359;51.402;6.778;2023-04-24T00:35:18;719.10;;;201.27;;
7783;SDS011;19359;51.402;6.778;2023-04-24T00:37:45;712.42;;;194.75;;
7783;SDS011;19359;51.402;6.778;2023-04-24T00:40:13;713.92;;;197.25;;
7783;SDS011;19359;51.402;6.778;2023-04-24T00:42:40;717.05;;;202.50;;
7783;SDS011;19359;51.402;6.778;2023-04-24T00:45:07;715.50;;;199.38;;
7783;SDS011;19359;51.402;6.778;2023-04-24T00:47:36;717.38;;;199.40;;
7783;SDS011;19359;51.402;6.778;2023-04-24T00:50:03;710.63;;;189.48;;
7783;SDS011;19359;51.402;6.778;2023-04-24T00:52:32;712.97;;;189.73;;
7783;SDS011;19359;51.402;6.778;2023-04-24T00:54:59;715.63;;;196.15;;
7783;SDS011;19359;51.402;6.778;2023-04-24T00:57:26;703.63;;;192.30;;
7783;SDS011;19359;51.402;6.778;2023-04-24T00:59:57;704.38;;;192.85;;
7783;SDS011;19359;51.402;6.778;2023-04-24T01:02:24;704.50;;;185.10;;
7783;SDS011;19359;51.402;6.778;2023-04-24T01:04:53;669.17;;;193.68;;
7783;SDS011;19359;51.402;6.778;2023-04-24T01:07:20;679.65;;;187.68;;
7783;SDS011;19359;51.402;6.778;2023-04-24T01:09:47;684.80;;;191.88;;
7783;SDS011;19359;51.402;6.778;2023-04-24T01:12:16;694.38;;;186.10;;
7783;SDS011;19359;51.402;6.778;2023-04-24T01:14:43;696.75;;;182.10;;
7783;SDS011;19359;51.402;6.778;2023-04-24T01:17:10;704.33;;;177.73;;
7783;SDS011;19359;51.402;6.778;2023-04-24T01:19:37;704.42;;;176.60;;
7783;SDS011;19359;51.402;6.778;2023-04-24T01:22:09;709.72;;;178.60;;
7783;SDS011;19359;51.402;6.778;2023-04-24T01:24:37;701.67;;;172.77;;
7783;SDS011;19359;51.402;6.778;2023-04-24T01:27:04;705.90;;;175.52;;
7783;SDS011;19359;51.402;6.778;2023-04-24T01:29:31;707.17;;;168.57;;
7783;SDS011;19359;51.402;6.778;2023-04-24T01:31:59;704.75;;;165.40;;
7783;SDS011;19359;51.402;6.778;2023-04-24T01:34:26;702.90;;;167.50;;
7783;SDS011;19359;51.402;6.778;2023-04-24T01:36:53;707.28;;;167.88;;
7783;SDS011;19359;51.402;6.778;2023-04-24T01:39:22;706.45;;;171.32;;
7783;SDS011;19359;51.402;6.778;2023-04-24T01:41:50;704.28;;;169.20;;
7783;SDS011;19359;51.402;6.778;2023-04-24T01:44:18;701.72;;;163.25;;
7783;SDS011;19359;51.402;6.778;2023-04-24T01:46:46;701.80;;;163.75;;
7783;SDS011;19359;51.402;6.778;2023-04-24T01:49:13;704.05;;;169.57;;
7783;SDS011;19359;51.402;6.778;2023-04-24T01:51:40;701.30;;;165.73;;
7783;SDS011;19359;51.402;6.778;2023-04-24T01:54:07;692.35;;;168.63;;
7783;SDS011;19359;51.402;6.778;2023-04-24T01:56:36;692.17;;;171.93;;
7783;SDS011;19359;51.402;6.778;2023-04-24T01:59:05;664.28;;;163.43;;
7783;SDS011;19359;51.402;6.778;2023-04-24T02:01:34;564.45;;;163.00;;
7783;SDS011;19359;51.402;6.778;2023-04-24T02:04:02;618.95;;;163.80;;
7783;SDS011;19359;51.402;6.778;2023-04-24T02:06:29;661.33;;;171.77;;
7783;SDS011;19359;51.402;6.778;2023-04-24T02:08:56;647.30;;;172.95;;
7783;SDS011;19359;51.402;6.778;2023-04-24T02:11:24;608.60;;;164.73;;
7783;SDS011;19359;51.402;6.778;2023-04-24T02:13:52;577.67;;;161.80;;
7783;SDS011;19359;51.402;6.778;2023-04-24T02:16:19;598.75;;;170.38;;
7783;SDS011;19359;51.402;6.778;2023-04-24T02:18:47;644.65;;;177.18;;
7783;SDS011;19359;51.402;6.778;2023-04-24T02:21:14;604.08;;;169.73;;
7783;SDS011;19359;51.402;6.778;2023-04-24T02:23:41;646.72;;;171.05;;
7783;SDS011;19359;51.402;6.778;2023-04-24T02:26:08;633.53;;;170.90;;
7783;SDS011;19359;51.402;6.778;2023-04-24T02:28:35;672.08;;;173.02;;
7783;SDS011;19359;51.402;6.778;2023-04-24T02:31:04;678.70;;;174.63;;
7783;SDS011;19359;51.402;6.778;2023-04-24T02:33:32;669.35;;;171.77;;
7783;SDS011;19359;51.402;6.778;2023-04-24T02:35:59;650.70;;;167.60;;
7783;SDS011;19359;51.402;6.778;2023-04-24T02:38:26;659.40;;;168.60;;
7783;SDS011;19359;51.402;6.778;2023-04-24T02:40:53;694.95;;;167.38;;
7783;SDS011;19359;51.402;6.778;2023-04-24T02:43:20;679.10;;;169.63;;
7783;SDS011;19359;51.402;6.778;2023-04-24T02:45:47;694.47;;;175.63;;
7783;SDS011;19359;51.402;6.778;2023-04-24T02:48:16;686.30;;;166.70;;
7783;SDS011;19359;51.402;6.778;2023-04-24T02:50:43;687.92;;;164.73;;
7783;SDS011;19359;51.402;6.778;2023-04-24T02:53:10;683.65;;;166.23;;
7783;SDS011;19359;51.402;6.778;2023-04-24T02:55:37;651.17;;;170.00;;
7783;SDS011;19359;51.402;6.778;2023-04-24T02:58:05;648.47;;;170.25;;
7783;SDS011;19359;51.402;6.778;2023-04-24T03:00:32;651.92;;;169.40;;
7783;SDS011;19359;51.402;6.778;2023-04-24T03:02:59;667.60;;;171.32;;
7783;SDS011;19359;51.402;6.778;2023-04-24T03:05:28;678.22;;;171.23;;
7783;SDS011;19359;51.402;6.778;2023-04-24T03:07:56;699.00;;;177.82;;
7783;SDS011;19359;51.402;6.778;2023-04-24T03:10:23;679.13;;;169.07;;
7783;SDS011;19359;51.402;6.778;2023-04-24T03:12:50;678.97;;;170.73;;
7783;SDS011;19359;51.402;6.778;2023-04-24T03:15:17;712.03;;;180.98;;
7783;SDS011;19359;51.402;6.778;2023-04-24T03:17:44;683.38;;;171.70;;
7783;SDS011;19359;51.402;6.778;2023-04-24T03:20:12;671.28;;;169.80;;
7783;SDS011;19359;51.402;6.778;2023-04-24T03:22:40;687.17;;;179.35;;
7783;SDS011;19359;51.402;6.778;2023-04-24T03:25:08;710.42;;;171.02;;
7783;SDS011;19359;51.402;6.778;2023-04-24T03:27:35;708.83;;;171.23;;
7783;SDS011;19359;51.402;6.778;2023-04-24T03:30:04;706.35;;;174.35;;
7783;SDS011;19359;51.402;6.778;2023-04-24T03:32:32;688.88;;;171.02;;
7783;SDS011;19359;51.402;6.778;2023-04-24T03:34:59;692.65;;;175.73;;
7783;SDS011;19359;51.402;6.778;2023-04-24T03:37:27;680.08;;;166.68;;
7783;SDS011;19359;51.402;6.778;2023-04-24T03:39:55;694.78;;;174.40;;
7783;SDS011;19359;51.402;6.778;2023-04-24T03:42:22;707.83;;;173.40;;
7783;SDS011;19359;51.402;6.778;2023-04-24T03:44:49;706.67;;;178.35;;
7783;SDS011;19359;51.402;6.778;2023-04-24T03:47:16;702.00;;;171.07;;
7783;SDS011;19359;51.402;6.778;2023-04-24T03:49:43;707.25;;;173.93;;
7783;SDS011;19359;51.402;6.778;2023-04-24T03:52:11;699.38;;;172.98;;
7783;SDS011;19359;51.402;6.778;2023-04-24T03:54:38;689.00;;;174.52;;
7783;SDS011;19359;51.402;6.778;2023-04-24T03:57:06;706.97;;;178.82;;
7783;SDS011;19359;51.402;6.778;2023-04-24T03:59:33;675.25;;;167.40;;
7783;SDS011;19359;51.402;6.778;2023-04-24T04:02:00;672.58;;;173.88;;
7783;SDS011;19359;51.402;6.778;2023-04-24T04:04:29;675.38;;;178.20;;
7783;SDS011;19359;51.402;6.778;2023-04-24T04:06:56;669.80;;;176.10;;
7783;SDS011;19359;51.402;6.778;2023-04-24T04:09:26;691.38;;;174.77;;
7783;SDS011;19359;51.402;6.778;2023-04-24T04:11:53;681.90;;;178.00;;
7783;SDS011;19359;51.402;6.778;2023-04-24T04:14:21;696.30;;;178.80;;
7783;SDS011;19359;51.402;6.778;2023-04-24T04:16:49;675.38;;;171.35;;
7783;SDS011;19359;51.402;6.778;2023-04-24T04:19:16;701.05;;;177.38;;
7783;SDS011;19359;51.402;6.778;2023-04-24T04:21:43;676.38;;;178.00;;
7783;SDS011;19359;51.402;6.778;2023-04-24T04:24:10;648.70;;;176.95;;
7783;SDS011;19359;51.402;6.778;2023-04-24T04:26:37;681.97;;;177.13;;
7783;SDS011;19359;51.402;6.778;2023-04-24T04:29:05;699.65;;;180.18;;
7783;SDS011;19359;51.402;6.778;2023-04-24T04:31:34;694.70;;;175.93;;
7783;SDS011;19359;51.402;6.778;2023-04-24T04:34:01;697.85;;;175.40;;
7783;SDS011;19359;51.402;6.778;2023-04-24T04:36:28;701.38;;;176.45;;
7783;SDS011;19359;51.402;6.778;2023-04-24T04:38:56;710.40;;;180.00;;
7783;SDS011;19359;51.402;6.778;2023-04-24T04:41:25;705.10;;;177.32;;
7783;SDS011;19359;51.402;6.778;2023-04-24T04:43:52;712.10;;;181.70;;
7783;SDS011;19359;51.402;6.778;2023-04-24T04:46:19;698.13;;;175.15;;
7783;SDS011;19359;51.402;6.778;2023-04-24T04:48:52;685.63;;;174.18;;
7783;SDS011;19359;51.402;6.778;2023-04-24T04:51:19;671.45;;;176.27;;
7783;SDS011;19359;51.402;6.778;2023-04-24T04:53:46;694.88;;;177.00;;
7783;SDS011;19359;51.402;6.778;2023-04-24T04:56:13;704.28;;;183.05;;
7783;SDS011;19359;51.402;6.778;2023-04-24T04:58:41;712.17;;;178.70;;
7783;SDS011;19359;51.402;6.778;2023-04-24T05:01:08;707.35;;;177.48;;
7783;SDS011;19359;51.402;6.778;2023-04-24T05:03:35;678.90;;;175.32;;
7783;SDS011;19359;51.402;6.778;2023-04-24T05:06:03;682.10;;;184.70;;
7783;SDS011;19359;51.402;6.778;2023-04-24T05:08:30;660.88;;;176.60;;
7783;SDS011;19359;51.402;6.778;2023-04-24T05:10:57;653.67;;;171.60;;
7783;SDS011;19359;51.402;6.778;2023-04-24T05:13:24;646.25;;;171.77;;
7783;SDS011;19359;51.402;6.778;2023-04-24T05:15:51;583.40;;;160.57;;
7783;SDS011;19359;51.402;6.778;2023-04-24T05:18:18;520.20;;;154.30;;
7783;SDS011;19359;51.402;6.778;2023-04-24T05:20:44;508.58;;;144.82;;
7783;SDS011;19359;51.402;6.778;2023-04-24T05:23:13;520.83;;;149.43;;
7783;SDS011;19359;51.402;6.778;2023-04-24T05:25:39;479.65;;;164.55;;
7783;SDS011;19359;51.402;6.778;2023-04-24T05:28:06;519.85;;;146.60;;
7783;SDS011;19359;51.402;6.778;2023-04-24T05:30:33;546.42;;;147.95;;
7783;SDS011;19359;51.402;6.778;2023-04-24T05:33:01;527.30;;;140.60;;
7783;SDS011;19359;51.402;6.778;2023-04-24T05:35:28;535.88;;;143.15;;
7783;SDS011;19359;51.402;6.778;2023-04-24T05:37:55;580.00;;;153.68;;
7783;SDS011;19359;51.402;6.778;2023-04-24T05:40:23;590.03;;;147.60;;
7783;SDS011;19359;51.402;6.778;2023-04-24T05:42:50;586.80;;;149.73;;
7783;SDS011;19359;51.402;6.778;2023-04-24T05:45:17;565.42;;;148.45;;
7783;SDS011;19359;51.402;6.778;2023-04-24T05:47:43;598.13;;;155.35;;
7783;SDS011;19359;51.402;6.778;2023-04-24T05:50:10;619.45;;;156.70;;
7783;SDS011;19359;51.402;6.778;2023-04-24T05:52:37;617.92;;;154.63;;
7783;SDS011;19359;51.402;6.778;2023-04-24T05:55:04;519.13;;;141.10;;
7783;SDS011;19359;51.402;6.778;2023-04-24T05:57:33;607.90;;;157.60;;
7783;SDS011;19359;51.402;6.778;2023-04-24T06:00:00;615.58;;;154.45;;
7783;SDS011;19359;51.402;6.778;2023-04-24T06:02:27;609.00;;;154.45;;
7783;SDS011;19359;51.402;6.778;2023-04-24T06:04:57;609.92;;;154.90;;
7783;SDS011;19359;51.402;6.778;2023-04-24T06:07:24;609.47;;;158.18;;
7783;SDS011;19359;51.402;6.778;2023-04-24T06:09:52;608.45;;;154.13;;
7783;SDS011;19359;51.402;6.778;2023-04-24T06:12:19;624.35;;;156.10;;
7783;SDS011;19359;51.402;6.778;2023-04-24T06:14:47;646.38;;;152.05;;
7783;SDS011;19359;51.402;6.778;2023-04-24T06:17:14;615.75;;;153.82;;
7783;SDS011;19359;51.402;6.778;2023-04-24T06:19:41;603.85;;;152.20;;
7783;SDS011;19359;51.402;6.778;2023-04-24T06:22:08;635.00;;;154.98;;
7783;SDS011;19359;51.402;6.778;2023-04-24T06:24:35;598.00;;;148.55;;
7783;SDS011;19359;51.402;6.778;2023-04-24T06:27:02;597.80;;;148.30;;
7783;SDS011;19359;51.402;6.778;2023-04-24T06:29:29;607.17;;;150.35;;
7783;SDS011;19359;51.402;6.778;2023-04-24T06:31:58;610.92;;;152.77;;
7783;SDS011;19359;51.402;6.778;2023-04-24T06:34:24;595.35;;;154.05;;
7783;SDS011;19359;51.402;6.778;2023-04-24T06:36:51;577.25;;;148.15;;
7783;SDS011;19359;51.402;6.778;2023-04-24T06:39:18;548.85;;;145.43;;
7783;SDS011;19359;51.402;6.778;2023-04-24T06:41:45;587.10;;;151.65;;
7783;SDS011;19359;51.402;6.778;2023-04-24T06:44:12;602.38;;;149.30;;
7783;SDS011;19359;51.402;6.778;2023-04-24T06:46:39;517.55;;;139.40;;
7783;SDS011;19359;51.402;6.778;2023-04-24T06:49:07;556.17;;;150.25;;
7783;SDS011;19359;51.402;6.778;2023-04-24T06:51:34;556.63;;;145.68;;
7783;SDS011;19359;51.402;6.778;2023-04-24T06:54:01;575.92;;;148.77;;
7783;SDS011;19359;51.402;6.778;2023-04-24T06:56:28;545.22;;;148.27;;
7783;SDS011;19359;51.402;6.778;2023-04-24T06:58:55;522.65;;;137.95;;
7783;SDS011;19359;51.402;6.778;2023-04-24T07:01:22;503.70;;;133.90;;
7783;SDS011;19359;51.402;6.778;2023-04-24T07:03:48;535.20;;;141.88;;
7783;SDS011;19359;51.402;6.778;2023-04-24T07:06:16;506.08;;;137.20;;
7783;SDS011;19359;51.402;6.778;2023-04-24T07:08:46;500.98;;;138.75;;
7783;SDS011;19359;51.402;6.778;2023-04-24T07:11:13;488.13;;;136.35;;
7783;SDS011;19359;51.402;6.778;2023-04-24T07:13:39;507.90;;;138.38;;
7783;SDS011;19359;51.402;6.778;2023-04-24T07:16:07;502.75;;;136.35;;
7783;SDS011;19359;51.402;6.778;2023-04-24T07:18:34;509.08;;;135.55;;
7783;SDS011;19359;51.402;6.778;2023-04-24T07:21:01;517.08;;;135.90;;
7783;SDS011;19359;51.402;6.778;2023-04-24T07:23:29;517.85;;;134.25;;
7783;SDS011;19359;51.402;6.778;2023-04-24T07:25:56;504.25;;;132.68;;
7783;SDS011;19359;51.402;6.778;2023-04-24T07:28:23;505.85;;;134.27;;
7783;SDS011;19359;51.402;6.778;2023-04-24T07:30:50;526.75;;;132.05;;
7783;SDS011;19359;51.402;6.778;2023-04-24T07:33:18;529.25;;;131.02;;
7783;SDS011;19359;51.402;6.778;2023-04-24T07:35:45;531.97;;;135.95;;
7783;SDS011;19359;51.402;6.778;2023-04-24T07:38:13;538.95;;;141.30;;
7783;SDS011;19359;51.402;6.778;2023-04-24T07:40:41;528.97;;;135.30;;
7783;SDS011;19359;51.402;6.778;2023-04-24T07:43:07;552.38;;;137.82;;
7783;SDS011;19359;51.402;6.778;2023-04-24T07:45:34;541.90;;;131.73;;
7783;SDS011;19359;51.402;6.778;2023-04-24T07:48:02;524.53;;;130.45;;
7783;SDS011;19359;51.402;6.778;2023-04-24T07:50:29;522.40;;;128.82;;
7783;SDS011;19359;51.402;6.778;2023-04-24T07:52:56;517.63;;;128.48;;
7783;SDS011;19359;51.402;6.778;2023-04-24T07:55:23;512.25;;;130.20;;
7783;SDS011;19359;51.402;6.778;2023-04-24T07:57:52;510.30;;;124.03;;
7783;SDS011;19359;51.402;6.778;2023-04-24T08:00:19;498.85;;;124.90;;
7783;SDS011;19359;51.402;6.778;2023-04-24T08:02:46;496.70;;;123.85;;
7783;SDS011;19359;51.402;6.778;2023-04-24T08:05:13;487.38;;;124.30;;
7783;SDS011;19359;51.402;6.778;2023-04-24T08:07:40;507.00;;;125.82;;
7783;SDS011;19359;51.402;6.778;2023-04-24T08:10:09;545.67;;;132.32;;
7783;SDS011;19359;51.402;6.778;2023-04-24T08:12:36;530.55;;;130.30;;
7783;SDS011;19359;51.402;6.778;2023-04-24T08:15:05;534.50;;;129.00;;
7783;SDS011;19359;51.402;6.778;2023-04-24T08:17:33;514.33;;;128.85;;
7783;SDS011;19359;51.402;6.778;2023-04-24T08:20:00;541.28;;;135.63;;
7783;SDS011;19359;51.402;6.778;2023-04-24T08:22:27;507.08;;;127.07;;
7783;SDS011;19359;51.402;6.778;2023-04-24T08:24:54;512.40;;;125.68;;
7783;SDS011;19359;51.402;6.778;2023-04-24T08:27:22;512.30;;;126.03;;
7783;SDS011;19359;51.402;6.778;2023-04-24T08:29:48;504.63;;;122.78;;
7783;SDS011;19359;51.402;6.778;2023-04-24T08:32:17;518.00;;;128.13;;
7783;SDS011;19359;51.402;6.778;2023-04-24T08:34:44;517.13;;;125.00;;
7783;SDS011;19359;51.402;6.778;2023-04-24T08:37:11;525.55;;;126.43;;
7783;SDS011;19359;51.402;6.778;2023-04-24T08:39:38;535.53;;;128.40;;
7783;SDS011;19359;51.402;6.778;2023-04-24T08:42:05;493.08;;;119.47;;
7783;SDS011;19359;51.402;6.778;2023-04-24T08:44:33;494.88;;;120.05;;
7783;SDS011;19359;51.402;6.778;2023-04-24T08:47:00;498.38;;;122.47;;
7783;SDS011;19359;51.402;6.778;2023-04-24T08:49:29;490.40;;;120.55;;
7783;SDS011;19359;51.402;6.778;2023-04-24T08:51:56;528.28;;;134.27;;
7783;SDS011;19359;51.402;6.778;2023-04-24T08:54:24;518.65;;;126.45;;
7783;SDS011;19359;51.402;6.778;2023-04-24T08:56:51;500.50;;;124.47;;
7783;SDS011;19359;51.402;6.778;2023-04-24T08:59:21;489.63;;;122.60;;
7783;SDS011;19359;51.402;6.778;2023-04-24T09:01:48;493.65;;;123.43;;
7783;SDS011;19359;51.402;6.778;2023-04-24T09:04:16;491.88;;;128.13;;
7783;SDS011;19359;51.402;6.778;2023-04-24T09:06:46;517.13;;;128.50;;
7783;SDS011;19359;51.402;6.778;2023-04-24T09:09:14;497.25;;;126.72;;
7783;SDS011;19359;51.402;6.778;2023-04-24T09:11:43;485.45;;;120.40;;
7783;SDS011;19359;51.402;6.778;2023-04-24T09:14:10;471.50;;;125.38;;
7783;SDS011;19359;51.402;6.778;2023-04-24T09:16:37;474.17;;;119.25;;
7783;SDS011;19359;51.402;6.778;2023-04-24T09:19:04;467.73;;;121.47;;
7783;SDS011;19359;51.402;6.778;2023-04-24T09:21:31;478.98;;;127.28;;
7783;SDS011;19359;51.402;6.778;2023-04-24T09:24:00;471.52;;;119.22;;
7783;SDS011;19359;51.402;6.778;2023-04-24T09:26:29;453.50;;;119.47;;
7783;SDS011;19359;51.402;6.778;2023-04-24T09:28:58;487.38;;;119.35;;
7783;SDS011;19359;51.402;6.778;2023-04-24T09:31:26;470.92;;;121.00;;
7783;SDS011;19359;51.402;6.778;2023-04-24T09:33:54;484.23;;;121.82;;
7783;SDS011;19359;51.402;6.778;2023-04-24T09:36:28;452.00;;;118.60;;
7783;SDS011;19359;51.402;6.778;2023-04-24T09:38:58;490.27;;;122.43;;
7783;SDS011;19359;51.402;6.778;2023-04-24T09:41:27;463.35;;;118.40;;
7783;SDS011;19359;51.402;6.778;2023-04-24T09:43:55;483.80;;;127.00;;
7783;SDS011;19359;51.402;6.778;2023-04-24T09:46:28;455.98;;;120.20;;
7783;SDS011;19359;51.402;6.778;2023-04-24T09:48:56;460.48;;;121.18;;
7783;SDS011;19359;51.402;6.778;2023-04-24T09:51:33;441.80;;;117.93;;
7783;SDS011;19359;51.402;6.778;2023-04-24T09:54:04;437.45;;;120.65;;
7783;SDS011;19359;51.402;6.778;2023-04-24T09:56:36;468.45;;;126.47;;
7783;SDS011;19359;51.402;6.778;2023-04-24T09:59:09;471.02;;;122.53;;
7783;SDS011;19359;51.402;6.778;2023-04-24T10:01:35;454.00;;;120.80;;
7783;SDS011;19359;51.402;6.778;2023-04-24T10:04:03;447.98;;;117.00;;
7783;SDS011;19359;51.402;6.778;2023-04-24T10:06:32;453.73;;;121.68;;
7783;SDS011;19359;51.402;6.778;2023-04-24T10:08:59;452.35;;;120.28;;
7783;SDS011;19359;51.402;6.778;2023-04-24T10:11:28;446.85;;;123.15;;
7783;SDS011;19359;51.402;6.778;2023-04-24T10:13:56;459.95;;;121.40;;
7783;SDS011;19359;51.402;6.778;2023-04-24T10:16:23;444.25;;;123.78;;
7783;SDS011;19359;51.402;6.778;2023-04-24T10:18:52;481.38;;;128.00;;
7783;SDS011;19359;51.402;6.778;2023-04-24T10:21:19;505.75;;;130.05;;
7783;SDS011;19359;51.402;6.778;2023-04-24T10:23:46;496.88;;;138.10;;
7783;SDS011;19359;51.402;6.778;2023-04-24T10:26:15;486.63;;;131.50;;
7783;SDS011;19359;51.402;6.778;2023-04-24T10:28:46;472.50;;;127.38;;
7783;SDS011;19359;51.402;6.778;2023-04-24T10:31:13;468.73;;;124.68;;
7783;SDS011;19359;51.402;6.778;2023-04-24T10:33:41;459.33;;;124.05;;
7783;SDS011;19359;51.402;6.778;2023-04-24T10:36:09;451.60;;;124.43;;
7783;SDS011;19359;51.402;6.778;2023-04-24T10:38:38;445.05;;;119.90;;
7783;SDS011;19359;51.402;6.778;2023-04-24T10:41:07;451.10;;;123.30;;
7783;SDS011;19359;51.402;6.778;2023-04-24T10:43:39;461.15;;;122.43;;
7783;SDS011;19359;51.402;6.778;2023-04-24T10:46:08;454.58;;;128.15;;
7783;SDS011;19359;51.402;6.778;2023-04-24T10:48:36;448.08;;;123.05;;
7783;SDS011;19359;51.402;6.778;2023-04-24T10:51:10;449.98;;;127.15;;
7783;SDS011;19359;51.402;6.778;2023-04-24T10:53:39;453.17;;;127.00;;
7783;SDS011;19359;51.402;6.778;2023-04-24T10:56:06;448.45;;;129.75;;
7783;SDS011;19359;51.402;6.778;2023-04-24T10:58:35;450.83;;;126.82;;
7783;SDS011;19359;51.402;6.778;2023-04-24T11:01:03;487.05;;;139.52;;
7783;SDS011;19359;51.402;6.778;2023-04-24T11:03:33;493.27;;;137.77;;
7783;SDS011;19359;51.402;6.778;2023-04-24T11:06:02;471.48;;;141.55;;
7783;SDS011;19359;51.402;6.778;2023-04-24T11:08:30;470.08;;;142.85;;
7783;SDS011;19359;51.402;6.778;2023-04-24T11:11:03;480.70;;;148.90;;
7783;SDS011;19359;51.402;6.778;2023-04-24T11:16:25;513.63;;;156.77;;
7783;SDS011;19359;51.402;6.778;2023-04-24T11:19:01;502.88;;;158.20;;
7783;SDS011;19359;51.402;6.778;2023-04-24T11:21:30;473.77;;;144.77;;
7783;SDS011;19359;51.402;6.778;2023-04-24T11:23:57;511.98;;;147.45;;
7783;SDS011;19359;51.402;6.778;2023-04-24T11:26:24;342.95;;;125.93;;
7783;SDS011;19359;51.402;6.778;2023-04-24T11:29:05;557.33;;;147.45;;
7783;SDS011;19359;51.402;6.778;2023-04-24T11:31:39;415.63;;;133.32;;
7783;SDS011;19359;51.402;6.778;2023-04-24T11:34:09;499.38;;;138.48;;
7783;SDS011;19359;51.402;6.778;2023-04-24T11:36:37;514.72;;;136.57;;
7783;SDS011;19359;51.402;6.778;2023-04-24T11:39:04;464.15;;;142.32;;
7783;SDS011;19359;51.402;6.778;2023-04-24T11:41:31;468.90;;;145.75;;
7783;SDS011;19359;51.402;6.778;2023-04-24T11:43:58;474.00;;;140.35;;
7783;SDS011;19359;51.402;6.778;2023-04-24T11:46:29;522.17;;;158.98;;
7783;SDS011;19359;51.402;6.778;2023-04-24T11:48:57;502.15;;;150.00;;
7783;SDS011;19359;51.402;6.778;2023-04-24T11:51:26;504.02;;;158.10;;
7783;SDS011;19359;51.402;6.778;2023-04-24T11:53:53;506.60;;;160.73;;
7783;SDS011;19359;51.402;6.778;2023-04-24T11:56:21;515.78;;;163.80;;
7783;SDS011;19359;51.402;6.778;2023-04-24T11:58:48;518.53;;;157.25;;
7783;SDS011;19359;51.402;6.778;2023-04-24T12:01:15;519.92;;;152.57;;
7783;SDS011;19359;51.402;6.778;2023-04-24T12:03:43;513.45;;;158.50;;
7783;SDS011;19359;51.402;6.778;2023-04-24T12:06:14;517.63;;;152.77;;
7783;SDS011;19359;51.402;6.778;2023-04-24T12:08:42;524.45;;;158.65;;
7783;SDS011;19359;51.402;6.778;2023-04-24T12:11:14;514.13;;;151.52;;
7783;SDS011;19359;51.402;6.778;2023-04-24T12:13:43;512.30;;;150.43;;
7783;SDS011;19359;51.402;6.778;2023-04-24T12:16:10;487.38;;;155.50;;
7783;SDS011;19359;51.402;6.778;2023-04-24T12:18:41;540.17;;;157.10;;
7783;SDS011;19359;51.402;6.778;2023-04-24T12:21:15;534.20;;;159.30;;
7783;SDS011;19359;51.402;6.778;2023-04-24T12:23:44;641.80;;;178.80;;
7783;SDS011;19359;51.402;6.778;2023-04-24T12:26:11;559.28;;;175.15;;
7783;SDS011;19359;51.402;6.778;2023-04-24T12:28:38;623.70;;;162.32;;
7783;SDS011;19359;51.402;6.778;2023-04-24T12:31:06;370.73;;;142.38;;
7783;SDS011;19359;51.402;6.778;2023-04-24T12:33:34;539.75;;;160.95;;
7783;SDS011;19359;51.402;6.778;2023-04-24T12:36:01;514.20;;;163.65;;
7783;SDS011;19359;51.402;6.778;2023-04-24T12:38:28;508.80;;;166.68;;
7783;SDS011;19359;51.402;6.778;2023-04-24T12:41:04;520.08;;;165.13;;
7783;SDS011;19359;51.402;6.778;2023-04-24T12:43:32;506.00;;;160.88;;
7783;SDS011;19359;51.402;6.778;2023-04-24T12:45:59;498.52;;;162.27;;
7783;SDS011;19359;51.402;6.778;2023-04-24T12:48:26;510.55;;;162.55;;
7783;SDS011;19359;51.402;6.778;2023-04-24T12:50:53;493.58;;;163.10;;
7783;SDS011;19359;51.402;6.778;2023-04-24T12:53:21;508.52;;;160.88;;
7783;SDS011;19359;51.402;6.778;2023-04-24T12:55:48;507.60;;;167.13;;
7783;SDS011;19359;51.402;6.778;2023-04-24T12:58:19;500.77;;;160.25;;
7783;SDS011;19359;51.402;6.778;2023-04-24T13:00:46;517.72;;;164.38;;
7783;SDS011;19359;51.402;6.778;2023-04-24T13:03:13;540.10;;;168.98;;
7783;SDS011;19359;51.402;6.778;2023-04-24T13:05:41;584.20;;;174.88;;
7783;SDS011;19359;51.402;6.778;2023-04-24T13:08:08;589.70;;;178.95;;
7783;SDS011;19359;51.402;6.778;2023-04-24T13:10:35;600.35;;;175.40;;
7783;SDS011;19359;51.402;6.778;2023-04-24T13:13:02;595.50;;;173.13;;
7783;SDS011;19359;51.402;6.778;2023-04-24T13:15:31;608.40;;;171.93;;
7783;SDS011;19359;51.402;6.778;2023-04-24T13:17:58;603.38;;;168.43;;
7783;SDS011;19359;51.402;6.778;2023-04-24T13:20:25;559.08;;;165.77;;
7783;SDS011;19359;51.402;6.778;2023-04-24T13:22:52;549.75;;;156.32;;
7783;SDS011;19359;51.402;6.778;2023-04-24T13:25:19;588.03;;;164.32;;
7783;SDS011;19359;51.402;6.778;2023-04-24T13:27:47;601.90;;;165.80;;
7783;SDS011;19359;51.402;6.778;2023-04-24T13:30:14;583.70;;;162.68;;
7783;SDS011;19359;51.402;6.778;2023-04-24T13:32:42;607.50;;;176.57;;
7783;SDS011;19359;51.402;6.778;2023-04-24T13:35:09;550.13;;;168.70;;
7783;SDS011;19359;51.402;6.778;2023-04-24T13:37:36;571.72;;;168.75;;
7783;SDS011;19359;51.402;6.778;2023-04-24T13:40:04;583.80;;;176.43;;
7783;SDS011;19359;51.402;6.778;2023-04-24T13:42:32;590.67;;;173.85;;
7783;SDS011;19359;51.402;6.778;2023-04-24T13:45:00;601.20;;;176.15;;
7783;SDS011;19359;51.402;6.778;2023-04-24T13:47:27;614.00;;;182.75;;
7783;SDS011;19359;51.402;6.778;2023-04-24T13:49:55;612.00;;;180.57;;
7783;SDS011;19359;51.402;6.778;2023-04-24T13:52:22;635.78;;;180.65;;
7783;SDS011;19359;51.402;6.778;2023-04-24T13:54:49;642.33;;;185.07;;
7783;SDS011;19359;51.402;6.778;2023-04-24T13:57:16;649.40;;;193.82;;
7783;SDS011;19359;51.402;6.778;2023-04-24T13:59:42;676.75;;;192.75;;
7783;SDS011;19359;51.402;6.778;2023-04-24T14:02:10;674.33;;;194.35;;
7783;SDS011;19359;51.402;6.778;2023-04-24T14:04:36;684.72;;;189.02;;
7783;SDS011;19359;51.402;6.778;2023-04-24T14:07:04;699.13;;;198.65;;
7783;SDS011;19359;51.402;6.778;2023-04-24T14:09:32;690.35;;;199.88;;
7783;SDS011;19359;51.402;6.778;2023-04-24T14:11:59;681.13;;;203.68;;
7783;SDS011;19359;51.402;6.778;2023-04-24T14:14:28;683.28;;;198.45;;